createdAt,value
2022-11-23T15:39:02.356Z,33.80
2022-11-23T15:41:30.818Z,32.10
2022-11-23T15:43:59.844Z,32.90
2022-11-23T15:46:29.806Z,31.80
2022-11-23T15:48:58.241Z,32.10
2022-11-23T15:51:37.038Z,32.80
2022-11-23T15:54:04.575Z,31.70
2022-11-23T15:56:34.591Z,33.80
2022-11-23T15:59:05.239Z,33.80
2022-11-23T16:01:32.959Z,34.40
2022-11-23T16:04:03.599Z,36.20
2022-11-23T16:06:42.283Z,34.30
2022-11-23T16:09:51.192Z,32.40
2022-11-23T16:12:26.917Z,30.20
2022-11-23T16:14:56.109Z,30.60
2022-11-23T16:17:25.276Z,32.20
2022-11-23T16:19:54.520Z,32.30
2022-11-23T16:22:35.993Z,34.80
2022-11-23T16:25:08.689Z,31.90
2022-11-23T16:27:37.065Z,31.70
2022-11-23T16:30:04.883Z,31.80
2022-11-23T16:32:33.609Z,32.60
2022-11-23T16:35:17.634Z,32.20
2022-11-23T16:37:45.520Z,32.80
2022-11-23T16:40:15.559Z,31.80
2022-11-23T16:42:42.995Z,32.00
2022-11-23T16:45:14.856Z,35.40
2022-11-23T16:47:54.888Z,31.40
2022-11-23T16:50:23.186Z,32.80
2022-11-23T16:52:51.981Z,33.60
2022-11-23T16:55:19.789Z,34.30
2022-11-23T16:57:48.116Z,34.60
2022-11-23T17:00:19.151Z,34.20
2022-11-23T17:02:46.669Z,34.70
2022-11-23T17:05:19.500Z,36.80
2022-11-23T17:07:47.000Z,35.60
2022-11-23T17:10:15.446Z,34.50
2022-11-23T17:12:48.209Z,33.30
2022-11-23T17:15:17.238Z,34.90
2022-11-23T17:17:44.980Z,33.60
2022-11-23T17:20:15.134Z,32.50
2022-11-23T17:22:42.658Z,31.50
2022-11-23T17:25:14.928Z,33.00
2022-11-23T17:27:46.338Z,33.60
2022-11-23T17:30:18.798Z,32.90
2022-11-23T17:32:46.208Z,34.20
2022-11-23T17:35:13.869Z,32.70
2022-11-23T17:37:41.535Z,33.60
2022-11-23T17:40:16.339Z,31.90
2022-11-23T17:42:43.914Z,33.30
2022-11-23T17:45:12.823Z,31.50
2022-11-23T17:47:42.015Z,31.80
2022-11-23T17:50:17.790Z,32.40
2022-11-23T17:52:45.537Z,30.90
2022-11-23T17:55:14.328Z,31.20
2022-11-23T17:57:42.100Z,31.70
2022-11-23T18:00:19.704Z,30.50
2022-11-23T18:02:47.751Z,29.20
2022-11-23T18:05:21.164Z,29.40
2022-11-23T18:07:52.574Z,28.50
2022-11-23T18:10:20.592Z,29.10
2022-11-23T18:12:48.248Z,27.20
2022-11-23T18:15:16.611Z,27.40
2022-11-23T18:17:46.034Z,28.80
2022-11-23T18:20:15.647Z,28.20
2022-11-23T18:22:43.352Z,29.50
2022-11-23T18:25:12.232Z,28.90
2022-11-23T18:27:39.528Z,28.50
2022-11-23T18:30:08.570Z,29.20
2022-11-23T18:32:37.030Z,27.90
2022-11-23T18:35:05.220Z,30.20
2022-11-23T18:37:33.250Z,28.80
2022-11-23T18:40:00.808Z,26.00
2022-11-23T18:42:28.675Z,25.90
2022-11-23T18:44:56.956Z,27.10
2022-11-23T18:47:24.410Z,28.40
2022-11-23T18:49:53.305Z,26.60
2022-11-23T18:52:20.961Z,26.30
2022-11-23T18:54:49.239Z,26.00
2022-11-23T18:57:16.975Z,26.90
2022-11-23T18:59:59.690Z,29.20
2022-11-23T19:02:28.243Z,29.90
2022-11-23T19:04:56.410Z,29.90
2022-11-23T19:07:27.572Z,29.10
